createdAt,value
2018-11-25T00:02:47.406Z,99927.83
2018-11-25T00:07:50.767Z,99926.98
2018-11-25T00:12:54.231Z,99920.56
2018-11-25T00:17:57.722Z,99926.00
2018-11-25T00:23:01.123Z,99932.09
2018-11-25T00:28:04.648Z,99926.33
2018-11-25T00:33:07.984Z,99928.81
2018-11-25T00:38:11.358Z,99921.23
2018-11-25T00:43:14.686Z,99918.59
2018-11-25T00:48:18.387Z,99922.05
2018-11-25T00:53:21.752Z,99913.64
2018-11-25T00:58:25.096Z,99921.88
2018-11-25T01:03:28.452Z,99914.15
2018-11-25T01:08:31.879Z,99919.58
2018-11-25T01:13:35.204Z,99917.27
2018-11-25T01:18:38.552Z,99910.67
2018-11-25T01:23:42.018Z,99913.33
2018-11-25T01:28:45.390Z,99904.75
2018-11-25T01:33:48.767Z,99895.20
2018-11-25T01:38:52.146Z,99893.36
2018-11-25T01:43:55.587Z,99891.22
2018-11-25T01:48:58.900Z,99882.16
2018-11-25T01:54:02.229Z,99882.14
2018-11-25T01:59:05.750Z,99881.97
2018-11-25T02:04:09.113Z,99880.33
2018-11-25T02:09:12.628Z,99873.03
2018-11-25T02:14:16.016Z,99878.98
2018-11-25T02:19:19.462Z,99877.81
2018-11-25T02:24:22.897Z,99868.91
2018-11-25T02:29:26.413Z,99873.67
2018-11-25T02:34:29.749Z,99872.36
2018-11-25T02:39:33.252Z,99863.77
2018-11-25T02:44:36.845Z,99856.34
2018-11-25T02:49:40.219Z,99859.30
2018-11-25T02:54:43.592Z,99858.63
2018-11-25T02:59:46.996Z,99851.88
2018-11-25T03:04:50.335Z,99854.17
2018-11-25T03:09:53.688Z,99850.52
2018-11-25T03:14:57.230Z,99847.56
2018-11-25T03:20:00.582Z,99845.09
2018-11-25T03:25:03.996Z,99847.38
2018-11-25T03:30:10.188Z,99847.69
2018-11-25T03:35:14.071Z,99847.69
2018-11-25T03:40:19.857Z,99842.69
2018-11-25T03:45:23.352Z,99840.22
2018-11-25T03:50:26.700Z,99832.16
2018-11-25T03:55:30.216Z,99835.13
2018-11-25T04:00:33.595Z,99828.53
2018-11-25T04:05:36.980Z,99834.13
2018-11-25T04:10:40.395Z,99831.80
2018-11-25T04:15:43.759Z,99830.34
2018-11-25T04:20:47.167Z,99830.16
2018-11-25T04:25:50.525Z,99833.30
2018-11-25T04:30:53.915Z,99831.97
2018-11-25T04:35:57.491Z,99828.66
2018-11-25T04:41:00.829Z,99830.97
2018-11-25T04:46:04.160Z,99827.70
2018-11-25T04:51:07.607Z,99829.16
2018-11-25T04:56:10.925Z,99822.05
2018-11-25T05:01:14.410Z,99823.38
2018-11-25T05:06:17.841Z,99822.41
2018-11-25T05:11:21.216Z,99817.77
2018-11-25T05:16:24.547Z,99820.02
2018-11-25T05:21:27.872Z,99823.29
2018-11-25T05:26:31.349Z,99816.37
2018-11-25T05:31:34.680Z,99816.37
2018-11-25T05:36:38.072Z,99814.05
2018-11-25T05:41:41.475Z,99807.27
2018-11-25T05:46:44.835Z,99805.80
2018-11-25T05:51:48.212Z,99798.41
2018-11-25T05:56:51.537Z,99793.00
2018-11-25T06:01:55.208Z,99797.98
2018-11-25T06:06:58.764Z,99790.23
2018-11-25T06:12:02.376Z,99789.36
2018-11-25T06:17:06.258Z,99807.16
2018-11-25T06:22:09.821Z,99797.08
2018-11-25T06:27:13.388Z,99809.65
2018-11-25T06:32:17.008Z,99811.63
2018-11-25T06:37:20.589Z,99823.55
2018-11-25T06:42:24.168Z,99829.41
2018-11-25T06:47:27.717Z,99829.07
2018-11-25T06:52:31.442Z,99831.39
2018-11-25T06:57:34.993Z,99835.19
2018-11-25T07:02:38.600Z,99848.56
2018-11-25T07:07:42.013Z,99839.53
2018-11-25T07:12:45.545Z,99841.86
2018-11-25T07:17:49.227Z,99841.36
2018-11-25T07:22:54.126Z,99843.81
2018-11-25T07:27:56.475Z,99841.86
2018-11-25T07:33:00.239Z,99850.77
2018-11-25T07:38:03.907Z,99841.48
2018-11-25T07:43:07.432Z,99844.91
2018-11-25T07:48:11.097Z,99839.77
2018-11-25T07:53:14.521Z,99845.36
2018-11-25T07:58:18.164Z,99853.28
2018-11-25T08:03:21.776Z,99847.61
2018-11-25T08:08:25.394Z,99847.86
2018-11-25T08:13:28.984Z,99839.92
2018-11-25T08:18:32.546Z,99834.33
2018-11-25T08:23:36.696Z,99827.63
2018-11-25T08:28:40.521Z,99829.75
2018-11-25T08:33:44.120Z,99838.09
2018-11-25T08:38:47.777Z,99831.09
2018-11-25T08:43:51.561Z,99833.59
2018-11-25T08:48:55.866Z,99822.79
2018-11-25T08:53:59.356Z,99826.04
2018-11-25T08:59:05.289Z,99825.33
2018-11-25T09:04:08.937Z,99830.50
2018-11-25T09:09:18.689Z,99832.73
2018-11-25T09:14:22.659Z,99831.22
2018-11-25T09:19:26.681Z,99838.66
2018-11-25T09:24:30.517Z,99840.11
2018-11-25T09:29:34.121Z,99845.17
2018-11-25T09:34:37.645Z,99840.70
2018-11-25T09:39:41.149Z,99837.04
2018-11-25T09:44:44.671Z,99839.45
2018-11-25T09:49:48.169Z,99834.64
2018-11-25T09:54:51.535Z,99831.49
2018-11-25T09:59:55.015Z,99832.15
2018-11-25T10:04:59.574Z,99831.33
2018-11-25T10:10:04.530Z,99821.47
2018-11-25T10:15:09.443Z,99810.03
2018-11-25T10:20:18.815Z,99799.77
2018-11-25T10:25:22.241Z,99801.30
2018-11-25T10:30:26.480Z,99801.94
2018-11-25T10:35:29.828Z,99805.71
2018-11-25T10:40:33.642Z,99809.73
2018-11-25T10:45:37.140Z,99809.55
2018-11-25T10:50:40.651Z,99796.11
2018-11-25T10:55:44.375Z,99792.54
2018-11-25T11:00:53.005Z,99780.31
2018-11-25T11:06:01.849Z,99786.84
2018-11-25T11:11:05.973Z,99783.77
2018-11-25T11:16:09.604Z,99783.50
2018-11-25T11:21:13.276Z,99769.75
2018-11-25T11:26:26.743Z,99764.84
2018-11-25T11:31:30.989Z,99762.71
2018-11-25T11:36:34.753Z,99761.67
2018-11-25T11:41:39.185Z,99762.09
2018-11-25T11:46:42.864Z,99754.71
2018-11-25T11:51:46.516Z,99750.53
2018-11-25T11:56:50.904Z,99745.02
2018-11-25T12:01:54.447Z,99743.17
2018-11-25T12:06:59.215Z,99740.62
2018-11-25T12:12:02.751Z,99742.77
2018-11-25T12:17:06.587Z,99742.49
2018-11-25T12:22:10.278Z,99737.98
2018-11-25T12:27:14.080Z,99734.42
2018-11-25T12:32:17.962Z,99735.97
2018-11-25T12:37:21.719Z,99726.17
2018-11-25T12:42:25.713Z,99721.59
2018-11-25T12:47:29.845Z,99722.80
2018-11-25T12:52:33.554Z,99723.92
2018-11-25T12:57:37.189Z,99723.15
2018-11-25T13:02:40.844Z,99716.27
2018-11-25T13:07:44.609Z,99715.19
2018-11-25T13:12:48.570Z,99706.41
2018-11-25T13:17:52.051Z,99696.59
2018-11-25T13:22:55.775Z,99692.98
2018-11-25T13:27:59.873Z,99690.30
2018-11-25T13:33:04.118Z,99697.34
2018-11-25T13:38:07.968Z,99703.73
2018-11-25T13:43:11.588Z,99706.02
2018-11-25T13:48:15.292Z,99713.77
2018-11-25T13:53:18.943Z,99693.67
2018-11-25T13:58:22.429Z,99694.44
2018-11-25T14:03:29.032Z,99684.83
2018-11-25T14:08:32.777Z,99686.66
2018-11-25T14:13:36.571Z,99686.66
2018-11-25T14:18:40.259Z,99687.81
2018-11-25T14:23:43.976Z,99696.58
2018-11-25T14:28:48.128Z,99699.27
2018-11-25T14:33:51.747Z,99693.64
2018-11-25T14:38:58.206Z,99694.15
2018-11-25T14:44:01.753Z,99688.85
2018-11-25T14:49:05.529Z,99681.86
2018-11-25T14:54:09.318Z,99676.34
2018-11-25T14:59:12.952Z,99684.37
2018-11-25T15:04:16.455Z,99684.56
2018-11-25T15:09:21.097Z,99688.93
2018-11-25T15:14:24.496Z,99689.59
2018-11-25T15:19:28.928Z,99694.73
2018-11-25T15:24:32.672Z,99695.03
2018-11-25T15:29:36.214Z,99702.53
2018-11-25T15:34:39.831Z,99698.45
2018-11-25T15:39:43.203Z,99706.52
2018-11-25T15:44:46.980Z,99707.80
2018-11-25T15:49:50.601Z,99707.61
2018-11-25T15:54:54.303Z,99693.95
2018-11-25T15:59:57.809Z,99693.61
2018-11-25T16:05:01.343Z,99686.38
2018-11-25T16:10:08.773Z,99693.02
2018-11-25T16:15:13.753Z,99687.63
2018-11-25T16:20:18.455Z,99684.58
2018-11-25T16:25:24.865Z,99686.02
2018-11-25T16:30:28.204Z,99686.18
2018-11-25T16:35:31.613Z,99695.06
2018-11-25T16:40:35.064Z,99689.08
2018-11-25T16:45:38.833Z,99687.41
2018-11-25T16:50:42.173Z,99697.03
2018-11-25T16:55:45.977Z,99699.86
2018-11-25T17:00:49.484Z,99698.16
2018-11-25T17:05:53.618Z,99693.06
2018-11-25T17:10:57.434Z,99694.11
2018-11-25T17:16:01.023Z,99691.56
2018-11-25T17:21:04.574Z,99700.00
2018-11-25T17:26:08.245Z,99708.01
2018-11-25T17:31:11.765Z,99702.64
2018-11-25T17:36:15.365Z,99708.32
2018-11-25T17:41:19.002Z,99712.87
2018-11-25T17:46:22.741Z,99716.56
2018-11-25T17:51:26.455Z,99717.06
2018-11-25T17:56:30.171Z,99723.38
2018-11-25T18:01:33.748Z,99725.68
2018-11-25T18:06:37.511Z,99728.34
2018-11-25T18:11:41.245Z,99732.79
2018-11-25T18:16:44.835Z,99733.70
2018-11-25T18:21:49.886Z,99736.74
2018-11-25T18:26:53.641Z,99731.06
2018-11-25T18:31:57.264Z,99738.91
2018-11-25T18:37:00.934Z,99736.16
2018-11-25T18:42:05.101Z,99734.21
2018-11-25T18:47:08.849Z,99736.77
2018-11-25T18:52:12.575Z,99733.52
2018-11-25T18:57:16.128Z,99735.19
2018-11-25T19:02:23.478Z,99735.13
2018-11-25T19:07:33.802Z,99733.02
2018-11-25T19:12:44.259Z,99735.66
2018-11-25T19:17:59.308Z,99733.81
2018-11-25T19:23:06.081Z,99736.59
2018-11-25T19:28:14.253Z,99739.02
2018-11-25T19:33:18.101Z,99734.61
2018-11-25T19:38:23.614Z,99732.52
2018-11-25T19:43:27.606Z,99739.38
2018-11-25T19:48:31.888Z,99741.50
2018-11-25T19:53:35.724Z,99744.14
2018-11-25T19:58:39.641Z,99746.91
2018-11-25T20:03:43.420Z,99740.33
2018-11-25T20:08:47.339Z,99735.55
2018-11-25T20:13:51.268Z,99738.38
2018-11-25T20:18:55.894Z,99743.34
2018-11-25T20:23:59.737Z,99743.06
2018-11-25T20:29:03.332Z,99744.30
2018-11-25T20:34:07.070Z,99740.80
2018-11-25T20:39:16.270Z,99741.63
2018-11-25T20:44:19.906Z,99744.27
2018-11-25T20:49:24.028Z,99743.45
2018-11-25T20:54:27.780Z,99737.03
2018-11-25T20:59:31.763Z,99730.36
2018-11-25T21:04:35.353Z,99732.59
2018-11-25T21:09:39.008Z,99728.63
2018-11-25T21:14:42.671Z,99727.78
2018-11-25T21:19:46.900Z,99730.02
2018-11-25T21:24:50.624Z,99730.36
2018-11-25T21:29:55.589Z,99728.51
2018-11-25T21:35:02.072Z,99729.23
2018-11-25T21:40:11.670Z,99728.20
2018-11-25T21:45:18.157Z,99726.98
2018-11-25T21:50:37.445Z,99723.88
2018-11-25T21:56:01.590Z,99726.28
2018-11-25T22:01:33.790Z,99725.78
2018-11-25T22:07:03.171Z,99730.06
2018-11-25T22:12:11.642Z,99737.48
2018-11-25T22:17:15.453Z,99729.00
2018-11-25T22:22:20.777Z,99734.19
2018-11-25T22:27:25.770Z,99731.17
2018-11-25T22:32:29.678Z,99717.78
2018-11-25T22:37:38.020Z,99726.20
2018-11-25T22:42:47.554Z,99717.44
2018-11-25T22:47:53.397Z,99717.11
2018-11-25T22:52:57.399Z,99716.10
2018-11-25T22:58:01.749Z,99720.73
2018-11-25T23:03:06.622Z,99715.43
2018-11-25T23:08:10.379Z,99719.18
2018-11-25T23:13:13.966Z,99720.50
2018-11-25T23:18:17.468Z,99717.39
2018-11-25T23:23:21.024Z,99720.80
2018-11-25T23:28:24.524Z,99718.97
2018-11-25T23:33:28.146Z,99719.16
2018-11-25T23:38:31.862Z,99716.23
2018-11-25T23:43:35.567Z,99711.27
2018-11-25T23:48:39.192Z,99706.98
2018-11-25T23:53:42.829Z,99704.53
2018-11-25T23:58:46.454Z,99697.63
